Time;durP1;ratioP1;P1;durP2;ratioP2;P2;SDS_P1;SDS_P2;PMS_P1;PMS_P2;Temp;Humidity;BMP_temperature;BMP_pressure;BME280_temperature;BME280_humidity;BME280_pressure;Samples;Min_cycle;Max_cycle;Signal;HPM_P1;HPM_P2
2020/12/22 00:01:09;;;;;;;59.77;5.80;;;9.00;99.90;;;;;;5053482;28;20473;-70
2020/12/22 00:03:35;;;;;;;58.47;5.00;;;9.10;99.90;;;;;;5053341;28;20534;-70
2020/12/22 00:06:02;;;;;;;58.20;4.93;;;9.10;99.90;;;;;;5053256;28;20451;-70
2020/12/22 00:08:29;;;;;;;59.33;5.40;;;9.20;99.90;;;;;;5052954;28;20444;-70
2020/12/22 00:10:55;;;;;;;58.37;4.90;;;9.30;99.90;;;;;;5053008;28;20656;-70
2020/12/22 00:13:22;;;;;;;57.70;4.73;;;9.40;99.90;;;;;;5053284;28;20456;-70
2020/12/22 00:15:48;;;;;;;58.10;4.80;;;9.40;99.90;;;;;;5053211;28;20450;-70
2020/12/22 00:18:15;;;;;;;58.20;4.73;;;9.50;99.90;;;;;;5053100;28;20482;-71
2020/12/22 00:20:41;;;;;;;58.40;5.00;;;9.50;99.90;;;;;;5052489;28;20852;-70
2020/12/22 00:23:07;;;;;;;57.17;4.43;;;9.50;99.90;;;;;;5053247;28;20450;-70
2020/12/22 00:25:41;;;;;;;57.60;4.37;;;9.50;99.90;;;;;;5053093;28;20542;-70
2020/12/22 00:28:08;;;;;;;57.50;4.83;;;9.60;99.90;;;;;;5053027;28;20571;-70
2020/12/22 00:30:34;;;;;;;57.90;4.40;;;9.60;99.90;;;;;;5052351;28;20979;-70
2020/12/22 00:33:00;;;;;;;57.47;4.30;;;9.60;99.60;;;;;;5053380;28;20458;-70
2020/12/22 00:35:27;;;;;;;57.70;4.30;;;9.60;99.90;;;;;;5052736;28;20977;-70
2020/12/22 00:37:53;;;;;;;58.00;4.33;;;9.60;99.80;;;;;;5052817;28;20866;-70
2020/12/22 00:40:19;;;;;;;57.70;4.33;;;9.60;99.90;;;;;;5052744;28;20468;-70
2020/12/22 00:42:47;;;;;;;57.17;3.73;;;9.70;99.90;;;;;;5052649;28;20776;-71
2020/12/22 00:45:13;;;;;;;58.70;4.30;;;9.60;99.90;;;;;;5066124;22;20601;-72
2020/12/22 00:47:39;;;;;;;60.90;4.27;;;9.70;99.90;;;;;;5052149;28;20506;-73
2020/12/22 00:50:06;;;;;;;57.30;4.03;;;9.70;99.90;;;;;;5052235;28;20504;-73
2020/12/22 00:52:32;;;;;;;59.83;4.07;;;9.70;99.90;;;;;;5052524;28;20480;-75
2020/12/22 00:54:58;;;;;;;57.00;3.83;;;9.70;99.90;;;;;;5052369;28;20463;-73
2020/12/22 00:57:25;;;;;;;56.67;3.43;;;9.70;99.90;;;;;;5052309;28;20833;-72
2020/12/22 00:59:52;;;;;;;57.40;4.00;;;9.70;99.90;;;;;;5052020;28;20542;-72
2020/12/22 01:02:18;;;;;;;57.23;3.70;;;9.80;99.90;;;;;;5052528;28;21019;-69
2020/12/22 01:04:45;;;;;;;57.10;3.70;;;9.80;99.90;;;;;;5052088;28;20477;-74
2020/12/22 01:07:11;;;;;;;59.50;4.17;;;9.90;99.90;;;;;;5052364;28;20503;-73
2020/12/22 01:09:37;;;;;;;57.17;3.67;;;9.90;99.90;;;;;;5051951;28;20450;-72
2020/12/22 01:12:06;;;;;;;57.07;3.57;;;10.00;99.90;;;;;;5052174;28;20448;-72
2020/12/22 01:14:32;;;;;;;56.77;3.37;;;10.10;99.90;;;;;;5051952;28;20479;-73
2020/12/22 01:16:59;;;;;;;57.77;3.63;;;10.10;99.90;;;;;;5051905;28;20822;-72
2020/12/22 01:19:26;;;;;;;58.30;3.50;;;10.10;99.90;;;;;;5050888;28;20570;-73
2020/12/22 01:21:52;;;;;;;56.53;3.13;;;10.20;99.90;;;;;;5052194;28;20505;-72
2020/12/22 01:24:19;;;;;;;58.07;3.50;;;10.20;99.50;;;;;;5051780;28;20456;-72
2020/12/22 01:26:45;;;;;;;57.40;3.50;;;10.20;98.50;;;;;;5051956;28;20457;-72
2020/12/22 01:29:11;;;;;;;59.50;3.03;;;10.30;97.60;;;;;;5051477;28;20463;-72
2020/12/22 01:31:38;;;;;;;58.00;3.43;;;10.30;97.70;;;;;;5051681;28;20451;-73
2020/12/22 01:34:05;;;;;;;56.10;2.93;;;10.30;97.80;;;;;;5051847;28;20539;-73
2020/12/22 01:36:32;;;;;;;57.27;2.93;;;10.40;97.50;;;;;;5051806;28;20921;-75
2020/12/22 01:38:59;;;;;;;56.40;2.90;;;10.40;98.20;;;;;;5051574;28;20483;-73
2020/12/22 01:41:25;;;;;;;55.97;2.70;;;10.40;97.20;;;;;;5051626;28;20440;-72
2020/12/22 01:44:06;;;;;;;56.50;2.90;;;10.40;98.90;;;;;;5051404;28;20466;-72
2020/12/22 01:46:35;;;;;;;56.80;3.00;;;10.50;99.30;;;;;;5051351;28;20463;-73
2020/12/22 01:49:03;;;;;;;57.30;3.00;;;10.50;98.00;;;;;;5051211;28;20443;-72
2020/12/22 01:51:31;;;;;;;56.50;2.57;;;10.50;98.20;;;;;;5051357;28;20488;-72
2020/12/22 01:53:58;;;;;;;56.70;2.63;;;10.50;99.10;;;;;;5051595;28;20448;-72
2020/12/22 01:56:24;;;;;;;58.17;2.77;;;10.50;99.80;;;;;;5051748;28;20578;-73
2020/12/22 01:58:51;;;;;;;56.27;2.87;;;10.50;99.90;;;;;;5051140;28;20488;-73
2020/12/22 02:01:17;;;;;;;56.70;3.00;;;10.60;99.30;;;;;;5051388;28;20830;-72
2020/12/22 02:03:45;;;;;;;55.97;2.53;;;10.60;97.80;;;;;;5051540;28;20448;-72
2020/12/22 02:06:11;;;;;;;56.20;2.73;;;10.60;98.20;;;;;;5051225;28;20503;-72
2020/12/22 02:08:38;;;;;;;56.07;2.60;;;10.70;96.50;;;;;;5051249;28;20464;-72
2020/12/22 02:11:05;;;;;;;55.67;2.57;;;10.70;97.30;;;;;;5050862;28;20454;-72
2020/12/22 02:13:31;;;;;;;55.70;2.50;;;10.70;98.00;;;;;;5051183;28;20988;-72
2020/12/22 02:15:57;;;;;;;56.20;2.60;;;10.70;97.80;;;;;;5051077;28;21017;-72
2020/12/22 02:18:24;;;;;;;55.90;2.47;;;10.70;97.20;;;;;;5051140;28;20572;-72
2020/12/22 02:20:52;;;;;;;56.40;2.47;;;10.70;95.90;;;;;;5047778;28;20525;-72
2020/12/22 02:23:19;;;;;;;55.80;2.40;;;10.70;92.30;;;;;;5051399;28;20861;-72
2020/12/22 02:25:46;;;;;;;56.40;2.33;;;10.80;94.50;;;;;;5051219;28;20479;-73
2020/12/22 02:28:13;;;;;;;55.67;2.47;;;10.80;95.20;;;;;;5051069;28;20509;-73
2020/12/22 02:30:40;;;;;;;55.90;2.50;;;10.70;95.10;;;;;;5052340;28;20455;-72
2020/12/22 02:33:07;;;;;;;55.80;2.50;;;10.70;96.30;;;;;;5054957;28;20497;-72
2020/12/22 02:35:33;;;;;;;55.57;2.37;;;10.80;95.00;;;;;;5055128;28;20468;-74
2020/12/22 02:37:59;;;;;;;56.10;2.43;;;10.80;94.90;;;;;;5055211;28;20451;-70
2020/12/22 02:40:26;;;;;;;55.97;2.50;;;10.80;95.40;;;;;;5055005;28;20535;-71
2020/12/22 02:42:53;;;;;;;55.47;2.30;;;10.80;93.30;;;;;;5055259;28;20451;-69
2020/12/22 02:45:19;;;;;;;55.70;2.30;;;10.80;94.60;;;;;;5054629;28;20475;-69
2020/12/22 02:47:45;;;;;;;55.77;2.30;;;10.80;93.60;;;;;;5054736;28;20829;-71
2020/12/22 02:50:12;;;;;;;55.60;2.20;;;10.90;92.20;;;;;;5054653;28;20538;-72
2020/12/22 02:52:38;;;;;;;56.10;2.23;;;10.90;95.20;;;;;;5055187;28;20542;-72
2020/12/22 02:55:04;;;;;;;55.60;2.10;;;10.90;93.80;;;;;;5054698;28;20464;-72
2020/12/22 02:57:31;;;;;;;55.57;2.13;;;10.90;95.00;;;;;;5054810;28;20542;-73
2020/12/22 02:59:58;;;;;;;55.57;2.20;;;10.90;90.00;;;;;;5054335;28;20483;-72
2020/12/22 03:02:24;;;;;;;55.57;2.00;;;10.90;89.60;;;;;;5054375;28;20450;-72
2020/12/22 03:04:50;;;;;;;55.50;2.03;;;11.00;82.50;;;;;;5054433;28;20504;-72
2020/12/22 03:07:17;;;;;;;56.10;2.20;;;10.90;88.60;;;;;;5054550;28;20893;-72
2020/12/22 03:09:43;;;;;;;56.20;2.10;;;11.00;90.30;;;;;;5054223;28;20538;-72
2020/12/22 03:12:10;;;;;;;55.80;2.20;;;11.10;83.50;;;;;;5054445;28;20455;-72
2020/12/22 03:14:37;;;;;;;56.47;2.10;;;11.00;80.80;;;;;;5054255;28;20994;-72
2020/12/22 03:17:03;;;;;;;55.87;2.30;;;11.00;79.20;;;;;;5054034;28;20452;-72
2020/12/22 03:19:29;;;;;;;55.60;2.30;;;11.10;79.90;;;;;;5054061;28;20495;-72
2020/12/22 03:21:55;;;;;;;56.20;2.10;;;11.10;81.80;;;;;;5054407;28;20448;-72
2020/12/22 03:24:22;;;;;;;55.90;2.30;;;11.10;82.30;;;;;;5053956;28;20444;-72
2020/12/22 03:26:48;;;;;;;56.87;2.10;;;11.10;81.60;;;;;;5054247;28;20448;-72
2020/12/22 03:29:14;;;;;;;56.20;2.07;;;11.10;84.40;;;;;;5053613;28;20998;-72
2020/12/22 03:31:41;;;;;;;55.90;2.30;;;11.20;89.90;;;;;;5053974;28;20927;-73
2020/12/22 03:34:08;;;;;;;55.80;2.30;;;11.20;85.30;;;;;;5053969;28;20455;-72
2020/12/22 03:36:34;;;;;;;55.57;2.40;;;11.20;83.10;;;;;;5054175;28;20555;-72
2020/12/22 03:39:00;;;;;;;56.03;2.10;;;11.20;91.30;;;;;;5053703;28;20480;-72
2020/12/22 03:41:26;;;;;;;55.70;2.20;;;11.20;91.70;;;;;;5053248;28;20452;-72
2020/12/22 03:43:53;;;;;;;55.23;2.20;;;11.20;82.30;;;;;;5053314;28;20448;-74
2020/12/22 03:46:19;;;;;;;55.67;2.13;;;11.20;81.40;;;;;;5053543;28;20849;-72
2020/12/22 03:48:47;;;;;;;55.60;2.13;;;11.20;79.20;;;;;;5053892;28;20444;-72
2020/12/22 03:51:13;;;;;;;55.77;2.20;;;11.10;84.70;;;;;;5053468;28;20537;-74
2020/12/22 03:53:39;;;;;;;55.33;2.10;;;11.20;78.90;;;;;;5053579;28;20463;-72
2020/12/22 03:56:06;;;;;;;55.37;1.97;;;11.20;83.30;;;;;;5053395;28;21012;-72
2020/12/22 03:58:33;;;;;;;55.60;2.20;;;11.30;79.00;;;;;;5053379;28;20510;-72
2020/12/22 04:00:59;;;;;;;55.43;2.07;;;11.30;73.50;;;;;;5053343;28;20486;-72
2020/12/22 04:03:27;;;;;;;55.43;2.00;;;11.30;67.00;;;;;;5053545;28;20444;-72
2020/12/22 04:05:54;;;;;;;55.40;1.90;;;11.20;70.30;;;;;;5053435;28;20472;-74
2020/12/22 04:08:21;;;;;;;55.50;2.00;;;11.20;79.20;;;;;;5053275;28;20487;-72
2020/12/22 04:10:47;;;;;;;55.73;2.23;;;11.30;79.60;;;;;;5053036;28;20470;-72
2020/12/22 04:13:13;;;;;;;55.60;2.10;;;11.30;68.00;;;;;;5053124;28;20754;-71
2020/12/22 04:15:40;;;;;;;55.50;2.10;;;11.20;72.00;;;;;;5053058;28;20479;-74
2020/12/22 04:18:06;;;;;;;55.57;2.20;;;11.20;79.60;;;;;;5052936;28;20970;-72
2020/12/22 04:20:32;;;;;;;55.57;2.30;;;11.20;76.20;;;;;;5052828;28;20512;-72
2020/12/22 04:23:00;;;;;;;55.73;2.33;;;11.20;69.90;;;;;;5052905;28;20463;-72
2020/12/22 04:25:26;;;;;;;55.80;2.20;;;11.20;74.80;;;;;;5052984;28;20589;-74
2020/12/22 04:27:52;;;;;;;56.80;2.07;;;11.20;77.60;;;;;;5052961;28;20448;-72
2020/12/22 04:30:19;;;;;;;56.07;2.27;;;11.20;80.40;;;;;;5052468;28;20447;-72
2020/12/22 04:32:45;;;;;;;56.00;2.10;;;11.30;70.80;;;;;;5053261;28;20911;-72
2020/12/22 04:35:11;;;;;;;55.43;2.13;;;11.30;76.10;;;;;;5052696;28;20482;-72
2020/12/22 04:37:38;;;;;;;55.60;2.00;;;11.40;71.20;;;;;;5052848;28;20539;-72
2020/12/22 04:40:05;;;;;;;55.53;2.10;;;11.40;80.50;;;;;;5052353;28;20476;-71
2020/12/22 04:42:33;;;;;;;55.47;2.33;;;11.50;63.60;;;;;;5052648;28;20448;-72
2020/12/22 04:45:00;;;;;;;55.90;2.20;;;11.50;66.60;;;;;;5052425;28;20562;-71
2020/12/22 04:47:30;;;;;;;55.80;2.20;;;11.50;77.50;;;;;;5052981;28;20444;-72
2020/12/22 04:50:02;;;;;;;56.53;2.10;;;11.50;82.80;;;;;;5052248;28;20962;-71
2020/12/22 04:52:31;;;;;;;56.80;2.13;;;11.40;85.80;;;;;;5052605;28;20975;-72
2020/12/22 04:54:57;;;;;;;55.47;1.90;;;11.40;80.80;;;;;;5052065;28;20469;-72
2020/12/22 04:57:30;;;;;;;55.30;2.10;;;11.50;77.20;;;;;;5052263;28;20962;-72
2020/12/22 04:59:57;;;;;;;55.50;1.90;;;11.50;80.50;;;;;;5052274;28;20483;-73
2020/12/22 05:02:27;;;;;;;55.60;2.00;;;11.50;85.10;;;;;;5052256;28;20483;-72
2020/12/22 05:04:53;;;;;;;55.80;2.10;;;11.50;71.90;;;;;;5052231;28;20468;-73
2020/12/22 05:07:20;;;;;;;55.57;2.00;;;11.60;65.40;;;;;;5051983;28;20952;-69
2020/12/22 05:09:48;;;;;;;56.10;2.20;;;11.60;63.30;;;;;;5052098;28;20462;-72
2020/12/22 05:12:14;;;;;;;56.00;1.90;;;11.60;70.20;;;;;;5052240;28;20449;-72
2020/12/22 05:14:42;;;;;;;55.50;2.00;;;11.50;72.20;;;;;;5052068;28;20478;-72
2020/12/22 05:17:13;;;;;;;55.60;2.00;;;11.50;76.60;;;;;;5052067;28;20501;-72
2020/12/22 05:19:41;;;;;;;55.70;2.20;;;11.50;73.50;;;;;;5051611;28;20859;-72
2020/12/22 05:22:07;;;;;;;55.33;2.00;;;11.60;68.00;;;;;;5051888;28;20459;-72
2020/12/22 05:24:35;;;;;;;56.10;2.23;;;11.60;74.30;;;;;;5051957;28;20529;-73
2020/12/22 05:27:02;;;;;;;55.83;2.20;;;11.60;79.30;;;;;;5052269;28;20455;-72
2020/12/22 05:29:29;;;;;;;55.60;2.00;;;11.60;77.60;;;;;;5051539;28;20478;-69
2020/12/22 05:31:56;;;;;;;55.63;2.20;;;11.60;75.80;;;;;;5051796;28;20459;-69
2020/12/22 05:34:26;;;;;;;55.60;2.20;;;11.60;73.10;;;;;;5051333;28;20448;-69
2020/12/22 05:36:55;;;;;;;55.50;2.00;;;11.60;76.70;;;;;;5051919;28;20839;-70
2020/12/22 05:39:22;;;;;;;55.50;2.10;;;11.60;73.50;;;;;;5051342;28;20927;-70
2020/12/22 05:41:48;;;;;;;55.57;2.00;;;11.60;70.10;;;;;;5051807;28;20525;-72
2020/12/22 05:44:14;;;;;;;55.17;2.00;;;11.60;77.30;;;;;;5051472;28;20449;-69
2020/12/22 05:46:42;;;;;;;55.50;2.10;;;11.60;73.10;;;;;;5051495;28;20444;-70
2020/12/22 05:49:10;;;;;;;55.80;2.10;;;11.60;74.70;;;;;;5051223;28;20444;-71
2020/12/22 05:51:37;;;;;;;56.37;2.10;;;11.60;77.00;;;;;;5051142;28;20444;-70
2020/12/22 05:54:05;;;;;;;55.70;2.07;;;11.60;72.80;;;;;;5051537;28;20452;-70
2020/12/22 05:56:32;;;;;;;58.50;2.40;;;11.70;73.70;;;;;;5051448;28;20792;-70
2020/12/22 05:58:59;;;;;;;55.80;2.20;;;11.60;75.40;;;;;;5051301;28;21030;-70
2020/12/22 06:01:30;;;;;;;55.40;2.10;;;11.70;74.30;;;;;;5050854;28;20448;-70
2020/12/22 06:03:58;;;;;;;56.17;2.60;;;11.70;71.20;;;;;;5051508;28;20455;-71
2020/12/22 06:06:27;;;;;;;55.43;2.00;;;11.70;71.20;;;;;;5051026;28;20467;-70
2020/12/22 06:08:54;;;;;;;56.00;2.50;;;11.80;70.20;;;;;;5051419;28;20448;-70
2020/12/22 06:11:20;;;;;;;55.90;2.33;;;11.80;65.80;;;;;;5051377;28;20452;-70
2020/12/22 06:13:48;;;;;;;56.50;2.10;;;11.80;69.40;;;;;;5051126;28;20814;-69
2020/12/22 06:16:17;;;;;;;55.90;2.20;;;11.80;66.60;;;;;;5050929;28;20472;-69
2020/12/22 06:18:45;;;;;;;55.90;2.20;;;11.90;63.70;;;;;;5050905;28;21044;-70
2020/12/22 06:21:12;;;;;;;56.10;2.40;;;11.80;67.20;;;;;;5051054;28;20451;-70
2020/12/22 06:23:39;;;;;;;55.60;2.07;;;11.90;64.60;;;;;;5051062;28;20514;-70
2020/12/22 06:26:06;;;;;;;57.90;2.20;;;11.90;61.10;;;;;;5051118;28;21013;-70
2020/12/22 06:28:33;;;;;;;55.47;2.00;;;12.00;59.50;;;;;;5051323;28;20463;-70
2020/12/22 06:30:59;;;;;;;55.53;1.93;;;12.00;58.50;;;;;;5050652;28;20511;-70
2020/12/22 06:33:27;;;;;;;56.00;2.10;;;12.00;60.60;;;;;;5051218;28;20452;-70
2020/12/22 06:36:00;;;;;;;55.80;2.17;;;12.10;54.80;;;;;;5050960;28;20607;-71
2020/12/22 06:38:49;;;;;;;55.80;2.30;;;12.00;55.20;;;;;;5050791;28;20470;-70
2020/12/22 06:41:52;;;;;;;55.67;2.20;;;12.00;57.90;;;;;;5051038;28;20440;-69
2020/12/22 06:44:23;;;;;;;55.60;2.00;;;12.00;55.10;;;;;;5050688;28;20458;-70
2020/12/22 06:46:51;;;;;;;55.57;2.00;;;12.00;56.40;;;;;;5051538;28;20640;-69
2020/12/22 06:49:19;;;;;;;55.50;2.20;;;12.00;53.20;;;;;;5051053;28;20443;-69
2020/12/22 06:51:46;;;;;;;56.87;2.10;;;12.10;48.90;;;;;;5050801;28;20463;-70
2020/12/22 06:54:33;;;;;;;57.03;2.27;;;12.10;48.60;;;;;;5051025;28;20448;-70
2020/12/22 06:57:00;;;;;;;55.60;2.03;;;12.10;50.40;;;;;;5050748;28;20444;-70
2020/12/22 06:59:48;;;;;;;55.60;2.20;;;12.10;48.40;;;;;;5050431;28;21002;-70
2020/12/22 07:02:30;;;;;;;55.50;1.97;;;12.20;44.80;;;;;;5050796;28;20543;-70
2020/12/22 07:04:57;;;;;;;55.50;2.10;;;12.20;44.70;;;;;;5048361;28;20476;-70
2020/12/22 07:07:24;;;;;;;55.97;2.10;;;12.20;42.40;;;;;;5050574;28;20444;-70
2020/12/22 07:10:02;;;;;;;56.10;2.20;;;12.30;40.50;;;;;;5050319;28;20471;-70
2020/12/22 07:12:31;;;;;;;56.83;2.20;;;12.30;35.00;;;;;;5050354;28;20493;-69
2020/12/22 07:14:58;;;;;;;55.80;2.50;;;12.30;34.50;;;;;;5050651;28;20486;-70
2020/12/22 07:17:26;;;;;;;55.70;2.20;;;12.30;34.50;;;;;;5051236;28;20492;-70
2020/12/22 07:19:54;;;;;;;56.87;2.10;;;12.30;33.30;;;;;;5053815;28;20515;-70
2020/12/22 07:22:22;;;;;;;55.80;2.07;;;12.40;29.50;;;;;;5054128;28;20448;-70
2020/12/22 07:24:49;;;;;;;55.37;2.10;;;12.40;29.70;;;;;;5054033;28;20801;-70
2020/12/22 07:27:16;;;;;;;56.10;2.10;;;12.50;26.20;;;;;;5054329;28;20474;-70
2020/12/22 07:29:43;;;;;;;55.60;2.10;;;12.50;23.30;;;;;;5053634;28;20931;-70
2020/12/22 07:32:10;;;;;;;55.37;2.10;;;12.50;21.60;;;;;;5054184;28;20483;-70
2020/12/22 07:34:37;;;;;;;57.87;2.10;;;12.60;18.10;;;;;;5053772;28;20474;-70
2020/12/22 07:37:05;;;;;;;55.80;2.17;;;12.60;15.40;;;;;;5053834;28;20449;-70
2020/12/22 07:39:33;;;;;;;55.80;2.10;;;12.60;13.80;;;;;;5053171;28;21033;-70
2020/12/22 07:42:09;;;;;;;56.27;2.10;;;12.60;15.10;;;;;;5053907;28;20456;-70
2020/12/22 07:44:36;;;;;;;55.80;2.10;;;12.70;10.10;;;;;;5053472;28;20558;-70
2020/12/22 07:47:03;;;;;;;55.47;2.10;;;12.70;8.40;;;;;;5053789;28;20537;-70
2020/12/22 07:49:30;;;;;;;55.37;2.00;;;12.80;5.90;;;;;;5053349;28;20865;-69
2020/12/22 07:51:56;;;;;;;55.80;2.00;;;12.80;6.00;;;;;;5053406;28;20447;-69
2020/12/22 07:54:26;;;;;;;55.27;2.10;;;12.70;7.20;;;;;;5053509;28;20452;-69
2020/12/22 07:56:53;;;;;;;57.57;2.20;;;12.60;9.10;;;;;;5053639;28;20452;-69
2020/12/22 07:59:19;;;;;;;56.77;2.13;;;12.60;12.80;;;;;;5053501;28;20831;-70
2020/12/22 08:01:47;;;;;;;56.27;2.00;;;12.50;14.80;;;;;;5053228;28;20486;-69
2020/12/22 08:04:18;;;;;;;56.33;2.10;;;12.50;14.50;;;;;;5053403;28;20505;-69
2020/12/22 08:07:06;;;;;;;55.60;2.20;;;12.50;13.30;;;;;;5053559;28;20472;-69
2020/12/22 08:09:34;;;;;;;56.10;2.03;;;12.50;14.50;;;;;;5053281;28;20502;-70
2020/12/22 08:12:02;;;;;;;55.97;2.00;;;12.60;10.20;;;;;;5053236;28;20693;-69
2020/12/22 08:14:30;;;;;;;55.50;2.10;;;12.60;8.70;;;;;;5053604;28;20500;-69
2020/12/22 08:17:02;;;;;;;55.57;2.10;;;12.60;9.70;;;;;;5052741;28;20509;-72
2020/12/22 08:19:30;;;;;;;55.60;2.10;;;12.60;9.60;;;;;;5053186;28;20480;-69
2020/12/22 08:21:59;;;;;;;55.67;2.10;;;12.60;9.30;;;;;;5053307;28;20476;-69
2020/12/22 08:24:27;;;;;;;57.63;2.17;;;12.70;7.20;;;;;;5053092;28;21009;-69
2020/12/22 08:26:54;;;;;;;55.40;1.93;;;12.80;5.40;;;;;;5053112;28;20947;-69
2020/12/22 08:29:21;;;;;;;55.70;2.10;;;12.80;3.80;;;;;;5052452;28;20878;-69
2020/12/22 08:31:47;;;;;;;56.50;2.27;;;12.80;3.50;;;;;;5052605;28;20448;-69
2020/12/22 08:34:17;;;;;;;56.30;2.60;;;12.90;1.00;;;;;;5053062;28;20448;-69
2020/12/22 08:36:46;;;;;;;55.60;2.20;;;12.90;1.00;;;;;;5053284;28;20444;-68
2020/12/22 08:39:18;;;;;;;56.20;2.20;;;12.90;1.00;;;;;;5053115;28;20476;-69
2020/12/22 08:41:46;;;;;;;55.50;2.00;;;12.90;1.00;;;;;;5052578;28;20509;-69
2020/12/22 08:44:13;;;;;;;55.87;2.13;;;13.00;1.00;;;;;;5052426;28;20965;-70
2020/12/22 08:46:40;;;;;;;55.57;1.97;;;13.00;1.00;;;;;;5052950;28;20440;-70
2020/12/22 08:49:16;;;;;;;56.97;2.20;;;13.10;1.00;;;;;;5052737;28;20459;-70
2020/12/22 08:51:44;;;;;;;55.80;2.40;;;13.20;1.00;;;;;;5052308;28;20962;-70
2020/12/22 08:54:11;;;;;;;56.10;2.20;;;13.30;1.00;;;;;;5052541;28;20527;-70
2020/12/22 08:56:38;;;;;;;57.57;2.50;;;13.30;1.00;;;;;;5052314;28;20879;-70
2020/12/22 08:59:06;;;;;;;56.10;2.13;;;13.40;1.00;;;;;;5052495;28;20484;-70
2020/12/22 09:01:40;;;;;;;55.77;2.10;;;13.40;1.00;;;;;;5052299;28;20482;-70
2020/12/22 09:04:07;;;;;;;55.60;2.07;;;13.40;1.00;;;;;;5052419;28;20451;-70
2020/12/22 09:06:39;;;;;;;55.80;1.93;;;13.40;1.00;;;;;;5052267;28;21020;-70
2020/12/22 09:09:08;;;;;;;55.70;2.00;;;13.50;1.00;;;;;;5052129;28;20933;-70
2020/12/22 09:11:36;;;;;;;55.70;1.90;;;13.50;1.00;;;;;;5052073;28;20452;-70
2020/12/22 09:14:10;;;;;;;55.13;1.90;;;13.50;1.00;;;;;;5052508;28;20452;-70
2020/12/22 09:16:51;;;;;;;55.80;1.90;;;13.50;1.00;;;;;;5052287;28;20543;-70
2020/12/22 09:19:18;;;;;;;56.10;2.10;;;13.60;1.00;;;;;;5052040;28;20475;-70
2020/12/22 09:21:46;;;;;;;55.80;2.27;;;13.60;1.00;;;;;;5051640;28;20498;-70
2020/12/22 09:24:17;;;;;;;55.47;2.10;;;13.60;1.00;;;;;;5052082;28;20448;-70
2020/12/22 09:26:57;;;;;;;55.90;2.00;;;13.60;1.00;;;;;;5052085;28;20874;-70
2020/12/22 09:29:24;;;;;;;56.17;2.30;;;13.50;1.00;;;;;;5051803;28;20448;-70
2020/12/22 09:31:53;;;;;;;56.40;1.80;;;13.50;1.00;;;;;;5051530;28;20540;-70
2020/12/22 09:34:20;;;;;;;55.80;1.80;;;13.50;1.00;;;;;;5051853;28;20478;-70
2020/12/22 09:36:51;;;;;;;55.77;2.10;;;13.50;1.00;;;;;;5051745;28;20488;-70
2020/12/22 09:39:17;;;;;;;55.37;1.80;;;13.50;1.00;;;;;;5051445;28;20486;-70
2020/12/22 09:41:44;;;;;;;55.13;1.80;;;13.50;1.00;;;;;;5051231;28;20444;-70
2020/12/22 09:44:11;;;;;;;55.53;2.07;;;13.50;1.00;;;;;;5051426;28;20456;-70
2020/12/22 09:46:38;;;;;;;55.57;1.80;;;13.50;1.00;;;;;;5051553;28;20505;-70
2020/12/22 09:49:04;;;;;;;55.47;1.90;;;13.50;1.00;;;;;;5051817;28;20534;-69
2020/12/22 09:51:31;;;;;;;55.70;1.83;;;13.30;1.00;;;;;;5051660;28;20454;-69
2020/12/22 09:53:58;;;;;;;55.27;2.00;;;13.20;1.00;;;;;;5051606;28;20535;-69
2020/12/22 09:56:24;;;;;;;57.23;2.57;;;13.10;1.00;;;;;;5051470;28;20925;-69
2020/12/22 09:58:51;;;;;;;55.57;1.90;;;13.00;1.00;;;;;;5051562;28;20452;-69
2020/12/22 10:01:22;;;;;;;55.80;2.17;;;12.90;5.60;;;;;;5050926;28;20444;-70
2020/12/22 10:03:48;;;;;;;55.83;2.43;;;12.90;14.50;;;;;;5051478;28;20448;-69
2020/12/22 10:06:16;;;;;;;55.80;2.17;;;12.80;20.10;;;;;;5051355;28;20967;-69
2020/12/22 10:08:42;;;;;;;56.20;2.50;;;12.80;29.20;;;;;;5050889;28;20452;-69
2020/12/22 10:11:10;;;;;;;56.00;2.30;;;12.90;30.00;;;;;;5051115;28;21056;-70
2020/12/22 10:13:37;;;;;;;56.10;2.40;;;13.00;35.50;;;;;;5051237;28;20470;-70
2020/12/22 10:16:08;;;;;;;56.20;2.50;;;13.20;30.70;;;;;;5051388;28;20463;-70
2020/12/22 10:18:34;;;;;;;55.80;2.10;;;13.20;23.30;;;;;;5051163;28;20947;-69
2020/12/22 10:21:03;;;;;;;55.50;2.20;;;13.20;18.30;;;;;;5050568;28;20492;-69
2020/12/22 10:23:29;;;;;;;55.97;2.20;;;13.20;17.90;;;;;;5030852;28;20464;-69
2020/12/22 10:25:56;;;;;;;56.47;2.50;;;13.20;19.90;;;;;;5031156;28;20465;-69
2020/12/22 10:28:23;;;;;;;55.57;2.17;;;13.20;19.40;;;;;;5031226;28;20539;-69
2020/12/22 10:30:49;;;;;;;56.47;2.53;;;13.30;15.20;;;;;;5030871;28;20698;-69
2020/12/22 10:33:16;;;;;;;55.27;1.90;;;13.40;11.10;;;;;;5031264;28;20459;-69
2020/12/22 10:35:42;;;;;;;56.10;2.07;;;13.40;5.80;;;;;;5031116;28;20480;-70
2020/12/22 10:38:08;;;;;;;58.47;2.20;;;13.40;5.20;;;;;;5031062;28;20453;-70
2020/12/22 10:40:35;;;;;;;56.00;2.40;;;13.40;3.50;;;;;;5030652;28;20491;-70
2020/12/22 10:43:01;;;;;;;55.90;2.03;;;13.40;1.00;;;;;;5030809;28;20444;-69
2020/12/22 10:45:28;;;;;;;55.53;1.90;;;13.40;1.00;;;;;;5031061;28;20484;-70
2020/12/22 10:47:55;;;;;;;55.50;2.20;;;13.50;1.00;;;;;;5030919;28;20449;-70
2020/12/22 10:50:21;;;;;;;55.73;2.10;;;13.50;1.00;;;;;;5030780;28;20480;-70
2020/12/22 10:52:48;;;;;;;56.40;2.10;;;13.50;1.00;;;;;;5034298;28;20471;-70
2020/12/22 10:55:14;;;;;;;56.40;2.63;;;13.50;1.00;;;;;;5034562;28;20477;-70
2020/12/22 10:57:40;;;;;;;57.10;2.00;;;13.50;1.00;;;;;;5035078;28;20499;-70
2020/12/22 11:00:07;;;;;;;56.10;2.00;;;13.50;1.00;;;;;;5034232;28;20688;-70
2020/12/22 11:02:35;;;;;;;58.00;2.30;;;13.50;1.00;;;;;;5034833;28;20493;-70
2020/12/22 11:05:01;;;;;;;55.77;2.30;;;13.60;1.00;;;;;;5034314;28;21014;-70
2020/12/22 11:07:33;;;;;;;55.90;2.47;;;13.60;1.00;;;;;;5034668;28;20448;-70
2020/12/22 11:09:59;;;;;;;56.37;2.40;;;13.50;1.00;;;;;;5034146;28;21050;-70
2020/12/22 11:12:26;;;;;;;56.10;2.20;;;13.50;1.00;;;;;;5034634;28;20448;-70
2020/12/22 11:14:52;;;;;;;55.50;2.27;;;13.60;1.00;;;;;;5034629;28;20839;-70
2020/12/22 11:17:18;;;;;;;55.80;2.10;;;13.60;1.00;;;;;;5034459;28;20456;-70
2020/12/22 11:19:46;;;;;;;55.70;2.10;;;13.60;1.00;;;;;;5034169;28;20484;-70
2020/12/22 11:22:12;;;;;;;55.70;2.20;;;13.70;1.00;;;;;;5033902;28;20488;-70
2020/12/22 11:24:38;;;;;;;56.07;2.20;;;13.70;1.00;;;;;;5034315;28;20953;-70
2020/12/22 11:27:05;;;;;;;55.97;2.23;;;13.70;1.00;;;;;;5034100;28;20964;-70
2020/12/22 11:29:31;;;;;;;55.77;2.00;;;13.70;1.00;;;;;;5034375;28;20487;-70
2020/12/22 11:31:58;;;;;;;55.77;2.10;;;13.70;1.00;;;;;;5034261;28;20842;-69
2020/12/22 11:34:24;;;;;;;55.90;1.90;;;13.70;1.00;;;;;;5034677;28;20895;-69
2020/12/22 11:36:52;;;;;;;56.30;2.10;;;13.80;1.00;;;;;;5034514;28;20491;-70
2020/12/22 11:39:19;;;;;;;55.97;2.27;;;13.80;1.00;;;;;;5034733;28;20480;-70
2020/12/22 11:41:45;;;;;;;56.20;2.00;;;13.80;1.00;;;;;;5034359;28;20444;-70
2020/12/22 11:44:12;;;;;;;56.50;2.43;;;13.80;1.00;;;;;;5033684;28;20452;-70
2020/12/22 11:46:38;;;;;;;63.37;2.87;;;13.80;1.00;;;;;;5034148;28;20502;-70
2020/12/22 11:49:05;;;;;;;56.20;2.20;;;13.80;1.00;;;;;;5033680;28;20554;-70
2020/12/22 11:51:31;;;;;;;57.37;2.20;;;13.80;1.00;;;;;;5033437;28;20483;-70
2020/12/22 11:53:58;;;;;;;56.00;2.10;;;13.90;1.00;;;;;;5033530;28;20493;-70
2020/12/22 11:56:25;;;;;;;56.57;2.33;;;13.90;1.00;;;;;;5033354;28;20500;-70
2020/12/22 11:58:52;;;;;;;55.47;2.07;;;13.90;1.00;;;;;;5033833;28;20484;-70
2020/12/22 12:01:26;;;;;;;55.47;2.00;;;13.90;1.00;;;;;;5033355;28;20489;-70
2020/12/22 12:03:52;;;;;;;56.30;2.10;;;14.00;1.00;;;;;;5032735;28;20488;-70
2020/12/22 12:06:19;;;;;;;55.70;2.10;;;14.10;1.00;;;;;;5033341;28;20477;-70
2020/12/22 12:08:45;;;;;;;56.00;2.03;;;14.20;1.00;;;;;;5033720;28;20851;-70
2020/12/22 12:11:12;;;;;;;59.10;2.40;;;14.20;1.00;;;;;;5032985;28;20527;-70
2020/12/22 12:13:39;;;;;;;56.27;2.20;;;14.30;1.00;;;;;;5033388;28;20973;-70
2020/12/22 12:16:05;;;;;;;56.93;1.97;;;14.30;1.00;;;;;;5033107;28;20476;-70
2020/12/22 12:18:32;;;;;;;55.77;2.30;;;14.40;1.00;;;;;;5033152;28;20461;-70
2020/12/22 12:20:58;;;;;;;55.97;2.10;;;14.30;1.00;;;;;;5032757;28;20487;-70
2020/12/22 12:23:24;;;;;;;55.47;1.90;;;14.30;1.00;;;;;;5033384;28;20454;-70
2020/12/22 12:25:51;;;;;;;55.60;2.20;;;14.40;1.00;;;;;;5033052;28;20474;-70
2020/12/22 12:28:18;;;;;;;56.00;2.20;;;14.40;1.00;;;;;;5033180;28;20456;-70
2020/12/22 12:30:44;;;;;;;57.30;2.40;;;14.50;1.00;;;;;;5032886;28;20917;-70
2020/12/22 12:33:10;;;;;;;55.70;2.23;;;14.50;1.00;;;;;;5032743;28;20482;-70
2020/12/22 12:35:37;;;;;;;56.43;2.20;;;14.50;1.00;;;;;;5033021;28;20834;-70
2020/12/22 12:38:03;;;;;;;55.57;2.10;;;14.50;1.00;;;;;;5032955;28;20450;-70
2020/12/22 12:40:29;;;;;;;55.67;2.00;;;14.50;1.00;;;;;;5032447;28;20485;-70
2020/12/22 12:42:56;;;;;;;55.90;2.17;;;14.50;1.00;;;;;;5032646;28;20481;-70